Whitefield, NH (03598)

9:25 AM EDT on March 27, 2017 (GMT -0400)
Mt. Well Seasoned | | Change Station
Active Advisory: Winter Weather Advisory

Elev 1211 ft 44.36 °N, 71.60 °W | Updated 34 seconds ago

Rain
Rain
33.2 °F
Feels Like 29 °F
N
4.0
Wind Variable Wind from South

Today
High -- | Low -- °F
--% Chance of Precip.
Yesterday
High -- | Low -- °F
Precip. -- in
Pressure 30.15 in
Visibility 7.0 miles
Clouds Overcast 3100 ft
Windchill 29 °F
Dew Point 32 °F
Humidity 98%
Rainfall 0.32 in
Snow Depth Not available.
6:36 AM 7:07 PM
Waning Crescent, 0% visible
METAR KHIE 271252Z AUTO 34005KT 7SM -RA OVC031 01/M01 A3011 RMK AO2 SLP209 P0006 T00111006
Pressure 30.15 in
Visibility 7.0 miles
Clouds Overcast 3100 ft
Windchill 29 °F
Dew Point 32 °F
Humidity 98%
Rainfall 0.32 in
Snow Depth Not available.
6:36 AM 7:07 PM
Waning Crescent, 0% visible
METAR KHIE 271252Z AUTO 34005KT 7SM -RA OVC031 01/M01 A3011 RMK AO2 SLP209 P0006 T00111006

Get Your Daily Forecast Email!

Thanks for signing up!

Be on the lookout for a verification email in your inbox.

You'll start receiving severe weather alerts in your inbox..

×

10-Day Weather Forecast

Almanac

Astronomy

Mar. 27, 2017 Rise Set
Actual Time
Civil Twilight
Nautical Twilight
Astronomical Twilight
Moon
Length of Visible Light
Length of Day
Tomorrow will be .
, % of the Moon is Illuminated

Today's Extremes

State Highs State Lows

Community

WunderPhotos

Upload Photos

1,962,540 photos uploaded!

WunderBlog® & News

Nearby

Air Quality

  Air Quality AQ Index Pollutant
Not available.

Snow Depth

Station Depth Elevation

Earthquake Activity

City Distance Mag. Time & Date
Minimum magnitude displayed is 2.5.

Earthquake Activity

City Distance Mag. Time & Date
Minimum magnitude displayed is 2.5.

Coastal Water Temperatures

Place Temperature

Stations

Nearby Weather Stations

Station Location Temp. Windchill Dew Point Humidity Wind Precip. Elev Updated Type
                   

Watches & Warnings

Winter Weather Advisory
Issued: 8:46 AM EDT Mar. 27, 2017 – National Weather Service

... Winter Weather Advisory remains in effect until 5 PM EDT this
afternoon...

* hazard types... snow, sleet, and freezing rain.

* Accumulations... snow and sleet accumulation of up to 1
inch... along with around a trace of ice.

* Timing... mixed precipitation and will continue through the day.

* Impacts... snow, sleet, and freezing rain will cause difficult
travel conditions. Ice accumulation on trees will weigh down
limbs and could snap small branches.

* Winds... southeast 5 mph or less.

* Temperatures... in the lower 30s.

Precautionary/preparedness actions...

A Winter Weather Advisory means that periods of snow... sleet... or
freezing rain will cause travel difficulties. Be prepared for
slippery roads and limited visibilities... and use caution while
driving.

For a more precise forecast for your specific location... go to
www.Weather.Gov/gray.



Schwibs